Time;durP1;ratioP1;P1;durP2;ratioP2;P2;SDS_P1;SDS_P2;PMS_P1;PMS_P2;Temp;Humidity;BMP_temperature;BMP_pressure;BME280_temperature;BME280_humidity;BME280_pressure;Samples;Min_cycle;Max_cycle;Signal;HPM_P1;HPM_P2
2022/10/22 00:01:21;;;;;;;45.23;21.43;;;;;;;-141.97;76.60;47605.56;4995526;28;20419;-82
2022/10/22 00:03:51;;;;;;;44.17;21.60;;;;;;;-141.97;76.61;47595.97;4995829;28;20434;-81
2022/10/22 00:06:22;;;;;;;45.80;21.20;;;;;;;-141.97;76.93;47628.63;4995730;28;20416;-81
2022/10/22 00:08:52;;;;;;;45.60;22.73;;;;;;;-141.97;77.83;47584.44;4995932;28;20407;-82
2022/10/22 00:11:23;;;;;;;44.93;22.63;;;;;;;-141.97;78.41;47526.75;4995670;28;20964;-82
2022/10/22 00:13:52;;;;;;;44.23;21.90;;;;;;;-141.97;80.07;47603.66;4995724;28;20462;-80
2022/10/22 00:16:24;;;;;;;48.70;22.93;;;;;;;-141.97;80.08;47586.34;4995721;28;20395;-80
2022/10/22 00:18:53;;;;;;;46.50;22.50;;;;;;;-141.97;79.94;47576.75;4995499;28;20407;-81
2022/10/22 00:21:24;;;;;;;45.57;21.80;;;;;;;-141.97;79.90;47601.72;4995540;28;20402;-81
2022/10/22 00:23:54;;;;;;;48.63;22.83;;;;;;;-141.97;79.35;47688.22;4995668;28;20397;-81
2022/10/22 00:26:23;;;;;;;44.80;21.80;;;;;;;-141.97;79.12;47620.94;4996129;28;20406;-81
2022/10/22 00:28:54;;;;;;;48.80;22.07;;;;;;;-141.97;78.63;47607.50;4995713;28;20409;-81
2022/10/22 00:31:26;;;;;;;49.57;23.37;;;;;;;-141.97;78.68;47611.34;4995470;28;20411;-81
2022/10/22 00:33:54;;;;;;;47.27;22.63;;;;;;;-141.97;78.48;47609.41;4977754;28;20485;-81
2022/10/22 00:36:24;;;;;;;40.97;22.13;;;;;;;-141.97;78.49;47615.19;4995232;28;20398;-81
2022/10/22 00:39:02;;;;;;;46.63;22.50;;;;;;;-141.97;77.64;47624.78;4995213;28;20405;-81
2022/10/22 00:41:27;;;;;;;48.37;22.63;;;;;;;-141.97;77.84;47592.13;4994538;28;20862;-81
2022/10/22 00:43:59;;;;;;;45.27;21.93;;;;;;;-141.97;78.30;47636.31;4995152;28;20430;-81
2022/10/22 00:46:26;;;;;;;46.57;22.93;;;;;;;-141.97;78.97;47622.88;4994619;28;20662;-81
2022/10/22 00:49:01;;;;;;;47.27;23.70;;;;;;;-141.97;78.92;47584.44;4995060;28;20819;-81
2022/10/22 00:51:32;;;;;;;54.87;23.60;;;;;;;-141.97;79.53;47599.81;4994741;28;20402;-81
2022/10/22 00:54:05;;;;;;;47.30;23.00;;;;;;;-141.97;79.58;47584.44;4994610;28;20478;-80
2022/10/22 00:56:32;;;;;;;47.23;22.63;;;;;;;-141.97;79.35;47615.19;4995694;28;20406;-80
2022/10/22 00:59:01;;;;;;;49.07;23.83;;;;;;;-141.97;79.31;47615.19;4996198;28;20394;-80
2022/10/22 01:01:30;;;;;;;48.80;23.13;;;;;;;-141.97;79.55;47584.44;4976962;28;20407;-81
2022/10/22 01:03:56;;;;;;;50.33;23.40;;;;;;;-141.97;79.43;47617.09;4993339;28;20417;-82
2022/10/22 01:06:29;;;;;;;48.60;22.93;;;;;;;-141.97;78.82;47615.19;4994591;28;20883;-80
2022/10/22 01:09:02;;;;;;;54.27;23.40;;;;;;;-141.97;78.58;47601.72;4994540;28;20410;-81
2022/10/22 01:11:46;;;;;;;47.97;23.97;;;;;;;-141.97;78.38;47576.75;4993592;28;20405;-81
2022/10/22 01:14:39;;;;;;;49.93;23.20;;;;;;;-141.97;78.14;47592.13;4994212;28;20583;-80
2022/10/22 01:17:12;;;;;;;49.90;25.17;;;;;;;-141.97;78.45;47592.13;4994086;28;20398;-80
2022/10/22 01:19:43;;;;;;;73.50;35.33;;;;;;;-141.97;77.96;47603.66;4976798;28;20848;-80
2022/10/22 01:22:27;;;;;;;52.23;25.57;;;;;;;-141.97;78.63;47619.03;4994020;28;20465;-81
2022/10/22 01:25:10;;;;;;;53.17;25.20;;;;;;;-141.97;78.43;47615.19;4994601;28;20806;-80
2022/10/22 01:27:52;;;;;;;46.70;22.80;;;;;;;-141.97;78.65;47711.28;4994082;28;20429;-81
2022/10/22 01:30:19;;;;;;;48.60;23.77;;;;;;;-141.97;79.62;47574.81;4993921;28;20881;-80
2022/10/22 01:32:58;;;;;;;49.43;24.00;;;;;;;-141.97;80.25;47611.34;4993570;28;20466;-80
2022/10/22 01:35:37;;;;;;;52.73;24.70;;;;;;;-141.97;81.06;47619.03;4994124;28;20490;-80
2022/10/22 01:38:06;;;;;;;54.70;25.27;;;;;;;-141.97;80.82;47634.41;4993707;28;20456;-81
2022/10/22 01:40:34;;;;;;;54.63;24.23;;;;;;;-141.97;81.71;47599.81;4993614;28;20488;-81
2022/10/22 01:43:03;;;;;;;51.00;25.00;;;;;;;-141.97;82.04;47590.19;4993626;28;20391;-81
2022/10/22 01:45:37;;;;;;;49.30;24.03;;;;;;;-141.97;81.95;47436.44;4993854;28;20902;-81
2022/10/22 01:48:31;;;;;;;50.73;24.37;;;;;;;-141.97;83.30;47605.56;4993520;28;20422;-81
2022/10/22 01:51:08;;;;;;;44.20;21.93;;;;;;;-141.97;84.35;47557.53;4914828;29;20426;-80
2022/10/22 01:53:49;;;;;;;50.43;23.43;;;;;;;-141.97;84.47;47615.19;4898630;29;20453;-81
2022/10/22 01:56:47;;;;;;;49.67;22.77;;;;;;;-141.97;84.58;47619.03;4898391;29;20422;-80
2022/10/22 01:59:22;;;;;;;50.20;23.83;;;;;;;-141.97;85.01;47626.72;4914296;29;20417;-81
2022/10/22 02:02:20;;;;;;;50.57;23.80;;;;;;;-141.97;85.02;47615.19;4914335;29;20815;-80
2022/10/22 02:04:52;;;;;;;53.67;24.10;;;;;;;-141.97;85.38;47546.00;4914147;29;20406;-80
2022/10/22 02:07:23;;;;;;;50.53;24.07;;;;;;;-141.97;85.78;47620.94;4914169;29;21032;-80
2022/10/22 02:09:51;;;;;;;54.67;25.53;;;;;;;-141.97;85.87;47613.25;4914220;29;20422;-80
2022/10/22 02:12:19;;;;;;;53.77;25.23;;;;;;;-141.97;85.62;47584.44;4913925;29;20521;-80
2022/10/22 02:14:47;;;;;;;53.63;24.83;;;;;;;-141.97;85.79;47574.81;4913853;29;20468;-80
2022/10/22 02:17:17;;;;;;;52.43;24.40;;;;;;;-141.97;85.88;47569.06;4913963;29;20414;-80
2022/10/22 02:19:57;;;;;;;58.07;25.23;;;;;;;-141.97;86.40;47626.72;4913996;29;20540;-80
2022/10/22 02:22:25;;;;;;;53.13;23.57;;;;;;;-141.97;86.02;47588.28;4914080;29;20421;-80
2022/10/22 02:24:50;;;;;;;51.07;23.87;;;;;;;-141.97;85.82;47546.00;4913585;29;20410;-79
2022/10/22 02:27:54;;;;;;;59.00;24.50;;;;;;;-141.97;85.01;47607.50;4923682;28;20423;-80
2022/10/22 02:30:21;;;;;;;50.30;23.73;;;;;;;-141.97;85.69;47584.44;4899631;29;20334;-78
2022/10/22 02:32:58;;;;;;;50.03;23.00;;;;;;;-141.97;85.22;47617.09;4895879;29;20470;-79
2022/10/22 02:35:26;;;;;;;50.77;23.87;;;;;;;-141.97;85.04;47553.69;4895164;29;20461;-82
2022/10/22 02:37:54;;;;;;;49.63;23.53;;;;;;;-141.97;84.87;47615.19;4895087;29;20423;-80
2022/10/22 02:40:20;;;;;;;45.67;22.20;;;;;;;-141.97;84.26;47609.41;4894760;29;20418;-81
2022/10/22 02:42:47;;;;;;;53.23;22.97;;;;;;;-141.97;83.99;47586.34;4894907;29;20524;-81
2022/10/22 02:45:13;;;;;;;49.17;21.77;;;;;;;-141.97;83.43;47599.81;4894722;29;20406;-81
2022/10/22 02:47:39;;;;;;;43.93;21.73;;;;;;;-141.97;83.10;47584.44;4894944;29;20423;-81
2022/10/22 02:50:06;;;;;;;47.27;22.57;;;;;;;-141.97;83.54;47609.41;4895210;29;20551;-82
2022/10/22 02:52:37;;;;;;;46.10;21.47;;;;;;;-141.97;84.67;47557.53;4896944;29;20167;-80
2022/10/22 02:55:08;;;;;;;46.47;23.00;;;;;;;-141.97;85.43;47569.06;4897710;29;20422;-81
2022/10/22 02:57:36;;;;;;;48.03;23.33;;;;;;;-141.97;85.64;47599.81;4895374;29;20415;-82
2022/10/22 03:00:07;;;;;;;48.50;23.70;;;;;;;-141.97;85.31;47599.81;4895184;29;20780;-81
2022/10/22 03:02:37;;;;;;;48.93;23.43;;;;;;;-141.97;84.75;47607.50;4895139;29;20474;-81
2022/10/22 03:05:08;;;;;;;48.33;23.83;;;;;;;-141.97;84.70;47619.03;4895259;29;20459;-81
2022/10/22 03:07:37;;;;;;;51.37;23.97;;;;;;;-141.97;84.16;47630.56;4953986;28;20918;-81
2022/10/22 03:10:08;;;;;;;51.43;24.10;;;;;;;-141.97;84.20;47603.66;4992946;28;20549;-81
2022/10/22 03:12:38;;;;;;;46.13;22.80;;;;;;;-141.97;84.21;47605.56;4992712;28;20458;-81
2022/10/22 03:15:09;;;;;;;51.40;24.00;;;;;;;-141.97;83.83;47599.81;4992933;28;20556;-80
2022/10/22 03:17:38;;;;;;;50.57;24.43;;;;;;;-141.97;83.80;47580.59;4992884;28;20829;-81
2022/10/22 03:20:09;;;;;;;52.23;23.53;;;;;;;-141.97;83.11;47617.09;4993041;28;20430;-81
2022/10/22 03:22:41;;;;;;;47.83;23.40;;;;;;;-141.97;82.84;47605.56;4992721;28;20398;-81
2022/10/22 03:25:13;;;;;;;47.70;21.70;;;;;;;-141.97;82.35;47638.25;4975071;28;20422;-82
2022/10/22 03:27:40;;;;;;;47.73;24.13;;;;;;;-141.97;81.72;47584.44;4992686;28;20457;-82
2022/10/22 03:30:12;;;;;;;46.87;22.73;;;;;;;-141.97;81.73;47592.13;4992808;28;20429;-81
2022/10/22 03:32:40;;;;;;;50.53;23.17;;;;;;;-141.97;81.61;47620.94;4992490;28;20899;-81
2022/10/22 03:35:12;;;;;;;57.13;27.70;;;;;;;-141.97;81.51;47634.41;4993566;28;20415;-81
2022/10/22 03:37:41;;;;;;;86.83;44.87;;;;;;;-141.97;82.12;47642.09;4996281;28;20410;-81
2022/10/22 03:40:11;;;;;;;131.20;52.43;;;;;;;-141.97;82.18;47619.03;4996512;28;20898;-83
2022/10/22 03:42:43;;;;;;;66.30;28.13;;;;;;;-141.97;84.13;47724.75;4992571;28;20486;-81
2022/10/22 03:45:11;;;;;;;132.40;41.80;;;;;;;-141.97;84.51;47607.50;4996283;28;20410;-82
2022/10/22 03:47:41;;;;;;;215.90;54.47;;;;;;;-141.97;84.42;47619.03;4996296;28;20406;-81
2022/10/22 03:50:12;;;;;;;158.67;57.03;;;;;;;-141.97;84.37;47615.19;4996250;28;20471;-81
2022/10/22 03:52:42;;;;;;;72.87;32.23;;;;;;;-141.97;84.16;47624.78;4996130;28;20432;-80
2022/10/22 03:55:12;;;;;;;54.63;25.87;;;;;;;-141.97;84.13;47565.22;4996049;28;20424;-80
2022/10/22 03:57:42;;;;;;;55.13;26.17;;;;;;;-141.97;83.99;47613.25;4995988;28;20517;-80
2022/10/22 04:00:12;;;;;;;54.23;26.43;;;;;;;-141.97;83.25;47588.28;4995857;28;20432;-80
2022/10/22 04:02:44;;;;;;;57.40;27.60;;;;;;;-141.97;83.16;47595.97;4996006;28;20402;-80
2022/10/22 04:05:13;;;;;;;59.10;28.73;;;;;;;-141.97;82.73;47603.66;4995972;28;20414;-81
2022/10/22 04:07:45;;;;;;;59.77;27.83;;;;;;;-141.97;82.21;47624.78;4995909;28;20874;-81
2022/10/22 04:10:14;;;;;;;56.80;27.17;;;;;;;-141.97;82.38;47607.50;4995643;28;20945;-81
2022/10/22 04:12:48;;;;;;;60.70;28.07;;;;;;;-141.97;82.53;47634.41;4995707;28;20469;-80
2022/10/22 04:15:14;;;;;;;52.30;27.27;;;;;;;-141.97;82.11;47592.13;4995426;28;20500;-81
2022/10/22 04:17:44;;;;;;;53.77;26.53;;;;;;;-141.97;82.07;47657.47;4995608;28;20494;-80
2022/10/22 04:20:15;;;;;;;60.67;27.83;;;;;;;-141.97;82.09;47586.34;4995711;28;20591;-80
2022/10/22 04:22:44;;;;;;;57.77;26.97;;;;;;;-141.97;82.19;47594.03;4995508;28;20410;-80
2022/10/22 04:25:15;;;;;;;53.20;24.63;;;;;;;-141.97;82.27;47580.59;4995671;28;20416;-80
2022/10/22 04:27:45;;;;;;;55.07;25.07;;;;;;;-141.97;83.80;47622.88;4995613;28;20410;-80
2022/10/22 04:30:17;;;;;;;49.77;24.30;;;;;;;-141.97;83.22;47574.81;4995597;28;20428;-81
2022/10/22 04:32:46;;;;;;;59.37;25.77;;;;;;;-141.97;84.14;47609.41;4995461;28;20411;-83
2022/10/22 04:35:16;;;;;;;103.90;45.90;;;;;;;-141.97;85.24;47628.63;4994363;28;20421;-80
2022/10/22 04:37:59;;;;;;;99.77;43.53;;;;;;;-141.97;84.84;47617.09;4995972;28;20406;-80
2022/10/22 04:40:25;;;;;;;96.03;44.20;;;;;;;-141.97;84.73;47594.03;4994815;28;20483;-80
2022/10/22 04:42:50;;;;;;;110.27;45.60;;;;;;;-141.97;85.47;47628.63;4995107;28;20909;-81
2022/10/22 04:45:19;;;;;;;111.53;44.30;;;;;;;-141.97;84.87;47534.44;4995404;28;20198;-81
2022/10/22 04:47:47;;;;;;;63.77;29.60;;;;;;;-141.97;84.26;47611.34;4994644;28;20554;-81
2022/10/22 04:50:19;;;;;;;86.50;36.20;;;;;;;-141.97;83.51;47607.50;4995509;28;20413;-79
2022/10/22 04:52:47;;;;;;;54.20;24.93;;;;;;;-141.97;83.33;47607.50;4996027;28;20441;-81
2022/10/22 04:55:18;;;;;;;49.57;23.83;;;;;;;-141.97;82.47;47580.59;4995304;28;20410;-80
2022/10/22 04:57:48;;;;;;;48.90;23.37;;;;;;;-141.97;82.11;47595.97;4995241;28;20429;-80
2022/10/22 05:00:18;;;;;;;49.07;23.30;;;;;;;-141.97;82.76;47615.19;4995123;28;20553;-80
2022/10/22 05:02:49;;;;;;;46.47;22.50;;;;;;;-141.97;82.04;47628.63;4994929;28;20434;-80
2022/10/22 05:05:18;;;;;;;55.83;24.47;;;;;;;-141.97;82.29;47638.25;4995014;28;20416;-80
2022/10/22 05:07:48;;;;;;;56.60;25.50;;;;;;;-141.97;82.06;47626.72;4994550;28;20406;-81
2022/10/22 05:10:14;;;;;;;51.23;23.30;;;;;;;-141.97;82.02;47636.31;4994623;28;20920;-79
2022/10/22 05:12:39;;;;;;;49.33;23.53;;;;;;;-141.97;82.76;47586.34;4993900;28;20474;-80
2022/10/22 05:15:05;;;;;;;46.60;24.07;;;;;;;-141.97;83.02;47615.19;4994346;28;20233;-80
2022/10/22 05:17:35;;;;;;;54.07;25.23;;;;;;;-141.97;82.70;47544.06;4994256;28;20531;-80
2022/10/22 05:20:00;;;;;;;81.70;37.77;;;;;;;-141.97;81.73;47638.25;4992682;28;20183;-80
2022/10/22 05:22:25;;;;;;;89.63;43.67;;;;;;;-141.97;81.46;47624.78;4994746;28;20787;-80
2022/10/22 05:24:51;;;;;;;87.73;40.50;;;;;;;-141.97;80.79;47630.56;4995305;28;20252;-80
2022/10/22 05:27:21;;;;;;;91.77;40.97;;;;;;;-141.97;79.90;47624.78;4981714;28;20676;-79
2022/10/22 05:29:51;;;;;;;101.13;44.17;;;;;;;-141.97;79.49;47601.72;4996618;28;20180;-80
2022/10/22 05:32:22;;;;;;;112.10;49.47;;;;;;;-141.97;78.96;47546.00;4994242;28;20401;-80
2022/10/22 05:34:51;;;;;;;77.07;35.83;;;;;;;-141.97;78.72;47599.81;4994419;28;20511;-82
2022/10/22 05:37:22;;;;;;;81.87;39.13;;;;;;;-141.97;78.83;47628.63;4994561;28;20899;-81
2022/10/22 05:39:52;;;;;;;92.27;41.20;;;;;;;-141.97;79.04;47609.41;4994228;28;20414;-81
2022/10/22 05:42:30;;;;;;;73.60;34.27;;;;;;;-141.97;78.57;47592.13;4994283;28;20791;-80
2022/10/22 05:44:56;;;;;;;58.70;27.93;;;;;;;-141.97;77.96;47651.69;4976080;28;20418;-81
2022/10/22 05:47:24;;;;;;;119.97;60.03;;;;;;;-141.97;77.55;47626.72;4993801;28;20418;-81
2022/10/22 05:49:56;;;;;;;109.63;53.57;;;;;;;-141.97;77.48;47626.72;4993774;28;20175;-80
2022/10/22 05:52:23;;;;;;;100.10;48.93;;;;;;;-141.97;77.03;47622.88;4993877;28;20906;-83
2022/10/22 05:54:57;;;;;;;62.30;31.83;;;;;;;-141.97;77.73;47630.56;4993845;28;20458;-80
2022/10/22 05:57:24;;;;;;;46.03;25.10;;;;;;;-141.97;78.22;47611.34;4993756;28;20944;-83
2022/10/22 05:59:54;;;;;;;47.20;21.57;;;;;;;-141.97;78.11;47599.81;4992941;28;20452;-80
2022/10/22 06:02:24;;;;;;;56.23;29.40;;;;;;;-141.97;77.73;47661.31;4993712;28;20414;-79
2022/10/22 06:04:55;;;;;;;67.67;31.50;;;;;;;-141.97;78.33;47590.19;4993729;28;20910;-80
2022/10/22 06:07:25;;;;;;;85.27;36.30;;;;;;;-141.97;78.68;47576.75;4992211;28;20414;-81
2022/10/22 06:09:55;;;;;;;111.67;52.50;;;;;;;-141.97;77.50;47647.84;4993776;28;20414;-82
2022/10/22 06:12:25;;;;;;;62.90;34.13;;;;;;;-141.97;77.58;47622.88;4993346;28;20553;-80
2022/10/22 06:14:55;;;;;;;41.00;21.27;;;;;;;-141.97;76.30;47630.56;4993515;28;20582;-80
2022/10/22 06:17:32;;;;;;;35.57;19.07;;;;;;;-141.97;75.49;47622.88;4993505;28;20434;-80
2022/10/22 06:19:58;;;;;;;52.13;26.37;;;;;;;-141.97;74.34;47626.72;4992903;28;20556;-81
2022/10/22 06:22:26;;;;;;;81.23;42.10;;;;;;;-141.97;73.19;47595.97;4993723;28;20486;-81
2022/10/22 06:24:56;;;;;;;81.57;42.00;;;;;;;-141.97;72.29;47622.88;4994344;28;20190;-79
2022/10/22 06:27:27;;;;;;;37.97;19.83;;;;;;;-141.97;71.13;47574.81;4994107;28;20484;-80
2022/10/22 06:29:57;;;;;;;33.23;16.97;;;;;;;-141.97;70.40;47615.19;4994076;28;20553;-81
2022/10/22 06:32:32;;;;;;;37.10;19.83;;;;;;;-141.97;69.86;47647.84;4993308;28;20933;-80
2022/10/22 06:34:57;;;;;;;38.40;18.43;;;;;;;-141.97;69.80;47642.09;4983812;28;20214;-82
2022/10/22 06:37:30;;;;;;;29.47;15.50;;;;;;;-141.97;68.48;47559.44;4993965;28;20171;-80
2022/10/22 06:39:58;;;;;;;26.37;14.93;;;;;;;-141.97;68.05;47551.75;4976337;28;20175;-83
2022/10/22 06:42:28;;;;;;;27.27;14.40;;;;;;;-141.97;66.45;47617.09;4994033;28;20695;-80
2022/10/22 06:45:03;;;;;;;24.33;13.33;;;;;;;-141.97;65.58;47645.94;4993413;28;20163;-80
2022/10/22 06:47:30;;;;;;;25.10;13.60;;;;;;;-141.97;64.57;47657.47;4992738;28;20616;-81
2022/10/22 06:49:59;;;;;;;23.23;12.87;;;;;;;-141.97;64.00;47607.50;4996404;28;20186;-81
2022/10/22 06:52:29;;;;;;;23.33;13.87;;;;;;;-141.97;63.51;47615.19;4994040;28;20172;-80
2022/10/22 06:54:59;;;;;;;28.87;14.97;;;;;;;-141.97;63.26;47617.09;4993889;28;20188;-81
2022/10/22 06:57:30;;;;;;;24.60;13.80;;;;;;;-141.97;62.94;47613.25;4993294;28;20202;-82
2022/10/22 06:59:59;;;;;;;30.57;16.23;;;;;;;-141.97;63.06;47603.66;4993400;28;20245;-80
2022/10/22 07:02:37;;;;;;;31.93;17.60;;;;;;;-141.97;63.80;47607.50;4993517;28;20191;-82
2022/10/22 07:05:02;;;;;;;30.17;17.93;;;;;;;-141.97;63.84;47603.66;4985556;28;20214;-81
2022/10/22 07:07:30;;;;;;;30.70;14.13;;;;;;;-141.97;64.34;47632.47;4992814;28;20664;-82
2022/10/22 07:09:58;;;;;;;27.73;13.60;;;;;;;-141.97;63.30;47611.34;4993699;28;20166;-82
2022/10/22 07:12:26;;;;;;;28.37;16.37;;;;;;;-141.97;62.22;47640.16;5000926;28;20231;-81
2022/10/22 07:14:51;;;;;;;34.17;19.07;;;;;;;-141.97;61.71;47592.13;4996278;28;20838;-81
2022/10/22 07:17:16;;;;;;;44.30;22.37;;;;;;;-141.97;61.73;47711.28;4996090;28;20221;-81
2022/10/22 07:19:42;;;;;;;30.90;16.57;;;;;;;-141.97;62.09;47595.97;4996089;28;20462;-81
2022/10/22 07:22:07;;;;;;;27.90;16.07;;;;;;;-141.97;62.00;47609.41;4996347;28;20243;-81
2022/10/22 07:24:33;;;;;;;27.97;15.53;;;;;;;-141.97;62.07;47594.03;4996263;28;20553;-81
2022/10/22 07:27:03;;;;;;;32.07;16.37;;;;;;;-141.97;62.03;47630.56;4996980;28;20171;-80
2022/10/22 07:29:33;;;;;;;46.73;25.37;;;;;;;-141.97;62.06;47597.88;4996524;28;20155;-80
2022/10/22 07:32:03;;;;;;;31.13;17.33;;;;;;;-141.97;62.32;47622.88;4996925;28;20652;-80
2022/10/22 07:34:34;;;;;;;29.67;14.73;;;;;;;-141.97;61.84;47599.81;4996540;28;20195;-80
2022/10/22 07:37:04;;;;;;;27.37;14.93;;;;;;;-141.97;61.30;47657.47;4996550;28;20203;-82
2022/10/22 07:39:35;;;;;;;27.40;15.87;;;;;;;-141.97;60.44;47594.03;4996231;28;20616;-81
2022/10/22 07:42:04;;;;;;;22.20;13.93;;;;;;;-141.97;59.22;47632.47;4996307;28;20186;-83
2022/10/22 07:44:34;;;;;;;25.23;14.67;;;;;;;-141.97;60.39;47728.59;4996267;28;20168;-81
2022/10/22 07:47:04;;;;;;;27.70;14.90;;;;;;;-141.97;61.25;47611.34;4996313;28;20175;-81
2022/10/22 07:49:34;;;;;;;27.27;14.27;;;;;;;-141.97;61.04;47617.09;4996157;28;20545;-81
2022/10/22 07:52:12;;;;;;;25.60;14.27;;;;;;;-141.97;61.80;47605.56;4996183;28;20164;-81
2022/10/22 07:54:37;;;;;;;26.80;14.60;;;;;;;-141.97;60.35;47619.03;4995471;28;20195;-81
2022/10/22 07:57:05;;;;;;;28.53;14.73;;;;;;;-141.97;59.05;47634.41;4995830;28;20213;-81
2022/10/22 07:59:40;;;;;;;20.30;11.37;;;;;;;-141.97;58.12;47620.94;4996384;28;20691;-81
2022/10/22 08:02:06;;;;;;;22.73;13.60;;;;;;;-141.97;57.81;47615.19;4995573;28;20197;-82
2022/10/22 08:04:38;;;;;;;25.97;15.97;;;;;;;-141.97;57.37;47584.44;4995827;28;20265;-81
2022/10/22 08:07:06;;;;;;;30.30;17.60;;;;;;;-141.97;56.53;47592.13;4995772;28;20159;-81
2022/10/22 08:09:36;;;;;;;32.33;18.47;;;;;;;-141.97;55.91;47603.66;4995813;28;20167;-81
2022/10/22 08:12:09;;;;;;;23.73;15.23;;;;;;;-141.97;55.77;47584.44;4995669;28;20231;-81
2022/10/22 08:14:37;;;;;;;26.57;13.20;;;;;;;-141.97;55.92;47611.34;4978184;28;20272;-81
2022/10/22 08:17:07;;;;;;;21.53;12.73;;;;;;;-141.97;55.08;47619.03;4995905;28;20226;-83
2022/10/22 08:19:40;;;;;;;20.70;11.97;;;;;;;-141.97;54.32;47584.44;4996127;28;20631;-81
2022/10/22 08:22:08;;;;;;;20.77;11.73;;;;;;;-141.97;55.09;47705.53;4995385;28;20623;-82
2022/10/22 08:24:38;;;;;;;18.90;12.70;;;;;;;-141.97;53.36;47557.53;4997370;28;20235;-79
2022/10/22 08:27:08;;;;;;;25.17;13.17;;;;;;;-141.97;53.25;47588.28;4985688;28;20179;-81
2022/10/22 08:29:40;;;;;;;19.20;11.67;;;;;;;-141.97;52.80;47588.28;4996965;28;20164;-80
2022/10/22 08:32:08;;;;;;;21.43;11.17;;;;;;;-141.97;52.14;47669.00;4995634;28;20248;-82
2022/10/22 08:34:39;;;;;;;20.63;11.77;;;;;;;-141.97;52.29;47594.03;4995358;28;20291;-80
2022/10/22 08:37:13;;;;;;;26.07;12.00;;;;;;;-141.97;51.68;47572.91;4995211;28;20217;-81
2022/10/22 08:39:41;;;;;;;27.93;14.37;;;;;;;-141.97;51.43;47653.63;4994932;28;20155;-82
2022/10/22 08:42:31;;;;;;;23.07;12.37;;;;;;;-141.97;52.29;47580.59;4995191;28;20167;-82
2022/10/22 08:45:41;;;;;;;17.30;9.83;;;;;;;-141.97;51.31;47574.81;4994869;28;20583;-81
2022/10/22 08:48:20;;;;;;;23.93;14.10;;;;;;;-141.97;50.64;47584.44;4916409;29;20241;-82
2022/10/22 08:50:48;;;;;;;18.27;10.33;;;;;;;-141.97;51.17;47595.97;4915700;29;20213;-81
2022/10/22 08:53:17;;;;;;;16.53;10.20;;;;;;;-141.97;52.91;47578.66;4915382;29;20638;-82
2022/10/22 08:55:44;;;;;;;17.80;10.30;;;;;;;-141.97;52.60;47580.59;4915593;29;20166;-81
2022/10/22 08:58:35;;;;;;;18.30;10.30;;;;;;;-141.97;51.91;47599.81;4915987;29;20174;-81
2022/10/22 09:01:16;;;;;;;18.80;11.27;;;;;;;-141.97;49.70;47553.69;4915696;29;20193;-80
2022/10/22 09:03:51;;;;;;;19.33;11.20;;;;;;;-141.97;49.37;47576.75;4915530;29;20317;-81
2022/10/22 09:06:21;;;;;;;23.23;11.83;;;;;;;-141.97;48.79;47542.16;4916438;29;20641;-80
2022/10/22 09:08:47;;;;;;;18.47;12.10;;;;;;;-141.97;49.31;47534.44;4920137;29;20170;-80
2022/10/22 09:11:22;;;;;;;21.03;12.63;;;;;;;-141.97;47.54;47565.22;4918773;29;20222;-80
2022/10/22 09:13:49;;;;;;;22.97;12.50;;;;;;;-141.97;46.67;47722.81;4915607;29;20233;-81
2022/10/22 09:16:18;;;;;;;24.53;14.47;;;;;;;-141.97;45.84;47503.69;4918532;29;20302;-82
2022/10/22 09:19:06;;;;;;;26.57;12.27;;;;;;;-141.97;46.96;47574.81;4920024;29;20294;-82
2022/10/22 09:21:38;;;;;;;45.03;20.80;;;;;;;-141.97;46.19;47584.44;4916199;29;20290;-80
2022/10/22 09:24:38;;;;;;;27.43;14.50;;;;;;;-141.97;44.85;47542.16;4921060;28;20170;-81
2022/10/22 09:27:16;;;;;;;22.47;12.90;;;;;;;-141.97;44.94;47536.38;4998596;28;20171;-80
2022/10/22 09:29:46;;;;;;;23.03;13.23;;;;;;;-141.97;45.18;47574.81;4997171;28;20259;-82
2022/10/22 09:32:15;;;;;;;28.17;14.33;;;;;;;-141.97;45.06;47538.28;4994326;28;20167;-81
2022/10/22 09:34:49;;;;;;;23.27;13.07;;;;;;;-141.97;44.84;47542.16;4993789;28;20282;-81
2022/10/22 09:37:18;;;;;;;15.67;8.90;;;;;;;-141.97;43.31;47565.22;4993801;28;20174;-82
2022/10/22 09:39:51;;;;;;;17.57;9.37;;;;;;;-141.97;42.51;47553.69;4993666;28;20167;-81
2022/10/22 09:42:18;;;;;;;16.50;9.47;;;;;;;-141.97;42.14;47496.00;4993600;28;20174;-81
2022/10/22 09:44:58;;;;;;;14.83;9.23;;;;;;;-141.97;42.25;47595.97;4994024;28;20222;-81
2022/10/22 09:47:32;;;;;;;15.30;9.13;;;;;;;-141.97;43.15;47515.22;4993625;28;20280;-80
2022/10/22 09:50:21;;;;;;;16.23;10.17;;;;;;;-141.97;43.00;47517.16;4993778;28;20174;-80
2022/10/22 09:53:10;;;;;;;16.90;10.00;;;;;;;-141.97;43.52;47555.59;4993434;28;20187;-82
2022/10/22 09:55:38;;;;;;;15.07;9.10;;;;;;;-141.97;44.04;47496.00;4993131;28;20278;-80
2022/10/22 09:58:04;;;;;;;14.93;9.37;;;;;;;-141.97;44.37;47546.00;4993348;28;20171;-80
2022/10/22 10:00:29;;;;;;;16.43;9.10;;;;;;;-141.97;44.46;47536.38;4993482;28;20171;-80
2022/10/22 10:02:57;;;;;;;14.43;8.87;;;;;;;-141.97;43.35;47586.34;4993245;28;20168;-81
2022/10/22 10:05:33;;;;;;;17.60;9.43;;;;;;;-141.97;42.94;47565.22;4993203;28;20172;-81
2022/10/22 10:08:11;;;;;;;21.23;9.57;;;;;;;-141.97;42.21;47561.38;4993294;28;20171;-81
2022/10/22 10:10:48;;;;;;;13.60;8.93;;;;;;;-141.97;41.76;47580.59;4993467;28;20171;-80
2022/10/22 10:13:37;;;;;;;15.80;9.00;;;;;;;-141.97;41.08;47542.16;4993623;28;20225;-81
2022/10/22 10:16:08;;;;;;;21.50;10.53;;;;;;;-141.97;40.38;47547.91;4993101;28;20322;-81
2022/10/22 10:18:58;;;;;;;22.63;10.23;;;;;;;-141.97;40.37;47540.22;4995015;28;20172;-79
2022/10/22 10:21:49;;;;;;;18.00;10.47;;;;;;;-141.97;41.21;47517.16;4994858;28;20687;-80
2022/10/22 10:24:36;;;;;;;16.17;10.23;;;;;;;-141.97;40.87;47526.75;4995046;28;20163;-80
2022/10/22 10:27:12;;;;;;;19.33;11.07;;;;;;;-141.97;40.69;47515.22;4994304;28;20544;-81
2022/10/22 10:30:01;;;;;;;21.60;10.97;;;;;;;-141.97;40.72;47492.16;4994608;28;20163;-79
2022/10/22 10:32:56;;;;;;;17.57;10.83;;;;;;;-141.97;39.95;47472.94;5000066;28;20175;-81
2022/10/22 10:35:34;;;;;;;17.43;10.63;;;;;;;-141.97;40.35;47522.91;4998295;28;20195;-81
2022/10/22 10:38:08;;;;;;;20.30;10.33;;;;;;;-141.97;40.18;47517.16;4996011;28;20167;-80
2022/10/22 10:40:53;;;;;;;19.33;10.17;;;;;;;-141.97;39.94;47515.22;4997411;28;20171;-81
2022/10/22 10:43:32;;;;;;;18.87;9.97;;;;;;;-141.97;39.30;47534.44;4992374;28;20297;-81
2022/10/22 10:46:22;;;;;;;16.17;10.37;;;;;;;-141.97;39.36;47526.75;4991816;28;20553;-81
2022/10/22 10:49:02;;;;;;;19.23;10.67;;;;;;;-141.97;39.56;47515.22;4992740;28;20163;-81
2022/10/22 10:51:58;;;;;;;16.97;10.27;;;;;;;-141.97;39.13;47540.22;4992336;28;20231;-81
2022/10/22 10:54:54;;;;;;;18.00;10.90;;;;;;;-141.97;39.25;47515.22;4992351;28;20218;-81
2022/10/22 10:57:53;;;;;;;19.37;11.40;;;;;;;-141.97;39.17;47557.53;4992886;28;20488;-81
2022/10/22 11:00:23;;;;;;;16.30;11.17;;;;;;;-141.97;39.16;47515.22;4913740;29;20710;-82
2022/10/22 11:03:33;;;;;;;18.30;11.17;;;;;;;-141.97;38.86;47559.44;4913977;29;20277;-81
2022/10/22 11:06:24;;;;;;;16.67;10.43;;;;;;;-141.97;38.38;47530.59;4857239;29;20292;-81
2022/10/22 11:09:26;;;;;;;18.63;10.67;;;;;;;-141.97;38.08;47532.53;4858125;29;20200;-81
2022/10/22 11:12:17;;;;;;;19.97;11.07;;;;;;;-141.97;38.35;47538.28;4827955;29;20215;-82
2022/10/22 11:14:58;;;;;;;23.40;12.70;;;;;;;-141.97;38.41;47522.91;4821810;29;20237;-81
2022/10/22 11:17:34;;;;;;;20.20;10.43;;;;;;;-141.97;38.28;47505.63;4821530;29;20261;-82
2022/10/22 11:20:11;;;;;;;17.07;10.20;;;;;;;-141.97;38.60;47559.44;4822457;29;20188;-82
2022/10/22 11:23:26;;;;;;;14.87;9.30;;;;;;;-141.97;38.39;47522.91;4822808;29;20209;-79
2022/10/22 11:25:56;;;;;;;13.80;9.23;;;;;;;-141.97;37.95;47532.53;4785218;30;20270;-81
2022/10/22 11:28:43;;;;;;;13.63;8.90;;;;;;;-141.97;38.43;47534.44;4788916;30;20182;-82